sensor_id;sensor_type;location;lat;lon;timestamp;temperature;humidity
14614;DHT22;7393;51.446;6.800;2023-05-15T00:00:43;16.70;99.90
14614;DHT22;7393;51.446;6.800;2023-05-15T00:03:10;16.60;1.00
14614;DHT22;7393;51.446;6.800;2023-05-15T00:05:38;16.70;1.00
14614;DHT22;7393;51.446;6.800;2023-05-15T00:08:05;16.60;1.00
14614;DHT22;7393;51.446;6.800;2023-05-15T00:10:32;16.60;1.00
14614;DHT22;7393;51.446;6.800;2023-05-15T00:12:59;16.50;99.90
14614;DHT22;7393;51.446;6.800;2023-05-15T00:15:26;16.50;24.00
14614;DHT22;7393;51.446;6.800;2023-05-15T00:17:52;16.40;99.90
14614;DHT22;7393;51.446;6.800;2023-05-15T00:20:19;16.40;99.90
14614;DHT22;7393;51.446;6.800;2023-05-15T00:22:48;16.30;99.90
14614;DHT22;7393;51.446;6.800;2023-05-15T00:25:14;16.30;99.90
14614;DHT22;7393;51.446;6.800;2023-05-15T00:27:43;16.30;99.90
14614;DHT22;7393;51.446;6.800;2023-05-15T00:30:11;16.30;90.70
14614;DHT22;7393;51.446;6.800;2023-05-15T00:32:38;16.30;99.90
14614;DHT22;7393;51.446;6.800;2023-05-15T00:35:06;16.30;1.00
14614;DHT22;7393;51.446;6.800;2023-05-15T00:37:33;16.30;1.00
14614;DHT22;7393;51.446;6.800;2023-05-15T00:40:01;16.30;99.90
14614;DHT22;7393;51.446;6.800;2023-05-15T00:42:29;16.20;1.00
14614;DHT22;7393;51.446;6.800;2023-05-15T00:44:57;16.20;99.90
14614;DHT22;7393;51.446;6.800;2023-05-15T00:47:26;16.20;99.90
14614;DHT22;7393;51.446;6.800;2023-05-15T00:49:54;16.10;1.00
14614;DHT22;7393;51.446;6.800;2023-05-15T00:52:23;16.10;1.00
14614;DHT22;7393;51.446;6.800;2023-05-15T00:54:50;16.10;99.90
14614;DHT22;7393;51.446;6.800;2023-05-15T00:57:19;16.10;99.90
14614;DHT22;7393;51.446;6.800;2023-05-15T00:59:48;16.10;1.00
14614;DHT22;7393;51.446;6.800;2023-05-15T01:02:17;16.00;1.00
14614;DHT22;7393;51.446;6.800;2023-05-15T01:04:44;15.90;1.00
14614;DHT22;7393;51.446;6.800;2023-05-15T01:07:11;15.90;1.00
14614;DHT22;7393;51.446;6.800;2023-05-15T01:09:41;15.90;1.00
14614;DHT22;7393;51.446;6.800;2023-05-15T01:12:09;15.90;99.90
14614;DHT22;7393;51.446;6.800;2023-05-15T01:14:38;15.80;99.90
14614;DHT22;7393;51.446;6.800;2023-05-15T01:17:05;15.80;1.00
14614;DHT22;7393;51.446;6.800;2023-05-15T01:19:31;15.70;99.90
14614;DHT22;7393;51.446;6.800;2023-05-15T01:22:32;15.70;1.00
14614;DHT22;7393;51.446;6.800;2023-05-15T01:25:31;15.70;1.00
14614;DHT22;7393;51.446;6.800;2023-05-15T01:28:07;15.70;99.90
14614;DHT22;7393;51.446;6.800;2023-05-15T01:30:37;15.60;99.90
14614;DHT22;7393;51.446;6.800;2023-05-15T01:33:07;15.60;1.00
14614;DHT22;7393;51.446;6.800;2023-05-15T01:35:39;15.60;1.00
14614;DHT22;7393;51.446;6.800;2023-05-15T01:38:16;15.60;1.00
14614;DHT22;7393;51.446;6.800;2023-05-15T01:40:44;15.50;99.90
14614;DHT22;7393;51.446;6.800;2023-05-15T01:43:17;15.50;99.90
14614;DHT22;7393;51.446;6.800;2023-05-15T01:45:47;15.50;1.00
14614;DHT22;7393;51.446;6.800;2023-05-15T01:48:14;15.50;1.00
14614;DHT22;7393;51.446;6.800;2023-05-15T01:50:44;15.50;1.00
14614;DHT22;7393;51.446;6.800;2023-05-15T01:53:12;15.40;1.00
14614;DHT22;7393;51.446;6.800;2023-05-15T01:55:40;15.40;1.00
14614;DHT22;7393;51.446;6.800;2023-05-15T01:58:08;15.40;1.00
14614;DHT22;7393;51.446;6.800;2023-05-15T02:00:37;15.30;1.00
14614;DHT22;7393;51.446;6.800;2023-05-15T02:03:05;15.30;1.00
14614;DHT22;7393;51.446;6.800;2023-05-15T02:05:33;15.30;99.90
14614;DHT22;7393;51.446;6.800;2023-05-15T02:08:01;15.30;1.00
14614;DHT22;7393;51.446;6.800;2023-05-15T02:10:29;15.30;99.40
14614;DHT22;7393;51.446;6.800;2023-05-15T02:12:57;15.30;99.90
14614;DHT22;7393;51.446;6.800;2023-05-15T02:15:24;15.30;18.70
14614;DHT22;7393;51.446;6.800;2023-05-15T02:17:53;15.20;1.00
14614;DHT22;7393;51.446;6.800;2023-05-15T02:20:20;15.20;1.00
14614;DHT22;7393;51.446;6.800;2023-05-15T02:22:46;15.20;1.00
14614;DHT22;7393;51.446;6.800;2023-05-15T02:25:13;15.20;1.00
14614;DHT22;7393;51.446;6.800;2023-05-15T02:27:45;15.10;1.00
14614;DHT22;7393;51.446;6.800;2023-05-15T02:30:22;15.10;1.00
14614;DHT22;7393;51.446;6.800;2023-05-15T02:33:03;15.10;99.90
14614;DHT22;7393;51.446;6.800;2023-05-15T02:35:33;15.10;1.00
14614;DHT22;7393;51.446;6.800;2023-05-15T02:38:08;15.00;1.00
14614;DHT22;7393;51.446;6.800;2023-05-15T02:40:36;15.00;13.60
14614;DHT22;7393;51.446;6.800;2023-05-15T02:43:04;15.00;1.00
14614;DHT22;7393;51.446;6.800;2023-05-15T02:45:31;15.00;1.00
14614;DHT22;7393;51.446;6.800;2023-05-15T02:48:01;15.00;1.00
14614;DHT22;7393;51.446;6.800;2023-05-15T02:50:29;15.00;99.90
14614;DHT22;7393;51.446;6.800;2023-05-15T02:53:01;15.00;1.00
14614;DHT22;7393;51.446;6.800;2023-05-15T02:55:28;15.10;99.90
14614;DHT22;7393;51.446;6.800;2023-05-15T02:57:55;15.10;91.20
14614;DHT22;7393;51.446;6.800;2023-05-15T03:00:22;15.10;33.10
14614;DHT22;7393;51.446;6.800;2023-05-15T03:02:48;15.10;1.00
14614;DHT22;7393;51.446;6.800;2023-05-15T03:05:17;15.10;1.00
14614;DHT22;7393;51.446;6.800;2023-05-15T03:07:43;15.10;1.00
14614;DHT22;7393;51.446;6.800;2023-05-15T03:10:10;15.10;1.00
14614;DHT22;7393;51.446;6.800;2023-05-15T03:12:37;15.10;57.50
14614;DHT22;7393;51.446;6.800;2023-05-15T03:15:05;15.10;99.90
14614;DHT22;7393;51.446;6.800;2023-05-15T03:17:33;15.10;1.00
14614;DHT22;7393;51.446;6.800;2023-05-15T03:19:59;15.10;99.90
14614;DHT22;7393;51.446;6.800;2023-05-15T03:22:27;15.10;99.90
14614;DHT22;7393;51.446;6.800;2023-05-15T03:24:54;15.10;99.90
14614;DHT22;7393;51.446;6.800;2023-05-15T03:27:21;15.00;99.90
14614;DHT22;7393;51.446;6.800;2023-05-15T03:29:48;15.00;1.00
14614;DHT22;7393;51.446;6.800;2023-05-15T03:32:15;15.00;99.90
14614;DHT22;7393;51.446;6.800;2023-05-15T03:34:42;15.00;99.90
14614;DHT22;7393;51.446;6.800;2023-05-15T03:37:09;15.00;99.90
14614;DHT22;7393;51.446;6.800;2023-05-15T03:39:37;15.00;1.00
14614;DHT22;7393;51.446;6.800;2023-05-15T03:42:04;15.00;65.20
14614;DHT22;7393;51.446;6.800;2023-05-15T03:44:31;14.90;1.00
14614;DHT22;7393;51.446;6.800;2023-05-15T03:46:58;15.00;1.00
14614;DHT22;7393;51.446;6.800;2023-05-15T03:49:25;14.90;1.00
14614;DHT22;7393;51.446;6.800;2023-05-15T03:51:51;14.90;1.00
14614;DHT22;7393;51.446;6.800;2023-05-15T03:54:18;15.00;99.90
14614;DHT22;7393;51.446;6.800;2023-05-15T03:56:46;14.90;99.90
14614;DHT22;7393;51.446;6.800;2023-05-15T03:59:13;14.90;1.00
14614;DHT22;7393;51.446;6.800;2023-05-15T04:01:40;14.90;1.00
14614;DHT22;7393;51.446;6.800;2023-05-15T04:04:07;14.90;1.00
14614;DHT22;7393;51.446;6.800;2023-05-15T04:06:34;14.90;63.40
14614;DHT22;7393;51.446;6.800;2023-05-15T04:09:01;14.90;1.00
14614;DHT22;7393;51.446;6.800;2023-05-15T04:11:28;14.90;1.00
14614;DHT22;7393;51.446;6.800;2023-05-15T04:13:56;14.90;1.00
14614;DHT22;7393;51.446;6.800;2023-05-15T04:16:23;14.90;99.90
14614;DHT22;7393;51.446;6.800;2023-05-15T04:18:49;14.90;1.00
14614;DHT22;7393;51.446;6.800;2023-05-15T04:21:16;14.90;1.00
14614;DHT22;7393;51.446;6.800;2023-05-15T04:23:43;14.90;99.90
14614;DHT22;7393;51.446;6.800;2023-05-15T04:26:10;14.90;1.00
14614;DHT22;7393;51.446;6.800;2023-05-15T04:28:36;14.90;18.30
14614;DHT22;7393;51.446;6.800;2023-05-15T04:31:05;14.80;1.00
14614;DHT22;7393;51.446;6.800;2023-05-15T04:33:31;14.90;1.00
14614;DHT22;7393;51.446;6.800;2023-05-15T04:35:58;14.90;1.00
14614;DHT22;7393;51.446;6.800;2023-05-15T04:38:25;14.90;99.90
14614;DHT22;7393;51.446;6.800;2023-05-15T04:40:52;14.90;99.90
14614;DHT22;7393;51.446;6.800;2023-05-15T04:43:18;14.90;99.90
14614;DHT22;7393;51.446;6.800;2023-05-15T04:45:45;14.90;99.90
14614;DHT22;7393;51.446;6.800;2023-05-15T04:48:13;14.90;92.40
14614;DHT22;7393;51.446;6.800;2023-05-15T04:50:42;14.80;99.90
14614;DHT22;7393;51.446;6.800;2023-05-15T04:53:09;14.70;99.90
14614;DHT22;7393;51.446;6.800;2023-05-15T04:55:36;14.70;99.90
14614;DHT22;7393;51.446;6.800;2023-05-15T04:58:03;14.70;99.90
14614;DHT22;7393;51.446;6.800;2023-05-15T05:00:29;14.70;99.90
14614;DHT22;7393;51.446;6.800;2023-05-15T05:02:56;14.70;1.00
14614;DHT22;7393;51.446;6.800;2023-05-15T05:05:24;14.70;99.90
14614;DHT22;7393;51.446;6.800;2023-05-15T05:07:51;14.70;1.00
14614;DHT22;7393;51.446;6.800;2023-05-15T05:10:18;14.70;1.00
14614;DHT22;7393;51.446;6.800;2023-05-15T05:12:45;14.80;1.00
14614;DHT22;7393;51.446;6.800;2023-05-15T05:15:12;14.80;99.90
14614;DHT22;7393;51.446;6.800;2023-05-15T05:17:39;14.80;99.90
14614;DHT22;7393;51.446;6.800;2023-05-15T05:20:07;14.70;99.90
14614;DHT22;7393;51.446;6.800;2023-05-15T05:22:36;14.70;99.90
14614;DHT22;7393;51.446;6.800;2023-05-15T05:25:05;14.60;1.00
14614;DHT22;7393;51.446;6.800;2023-05-15T05:27:32;14.60;99.90
14614;DHT22;7393;51.446;6.800;2023-05-15T05:29:59;14.60;1.00
14614;DHT22;7393;51.446;6.800;2023-05-15T05:32:26;14.60;1.00
14614;DHT22;7393;51.446;6.800;2023-05-15T05:34:52;14.60;1.00
14614;DHT22;7393;51.446;6.800;2023-05-15T05:37:19;14.60;1.00
14614;DHT22;7393;51.446;6.800;2023-05-15T05:39:47;14.60;99.90
14614;DHT22;7393;51.446;6.800;2023-05-15T05:42:14;14.50;1.00
14614;DHT22;7393;51.446;6.800;2023-05-15T05:44:41;14.50;1.00
14614;DHT22;7393;51.446;6.800;2023-05-15T05:47:07;14.60;1.00
14614;DHT22;7393;51.446;6.800;2023-05-15T05:49:34;14.60;17.30
14614;DHT22;7393;51.446;6.800;2023-05-15T05:52:06;14.60;1.00
14614;DHT22;7393;51.446;6.800;2023-05-15T05:54:33;14.70;1.00
14614;DHT22;7393;51.446;6.800;2023-05-15T05:57:01;14.70;99.90
14614;DHT22;7393;51.446;6.800;2023-05-15T05:59:28;14.70;1.00
14614;DHT22;7393;51.446;6.800;2023-05-15T06:01:55;14.70;99.90
14614;DHT22;7393;51.446;6.800;2023-05-15T06:04:22;14.70;1.00
14614;DHT22;7393;51.446;6.800;2023-05-15T06:06:48;14.80;1.00
14614;DHT22;7393;51.446;6.800;2023-05-15T06:09:15;14.80;1.00
14614;DHT22;7393;51.446;6.800;2023-05-15T06:11:42;14.70;1.00
14614;DHT22;7393;51.446;6.800;2023-05-15T06:14:11;14.80;1.00
14614;DHT22;7393;51.446;6.800;2023-05-15T06:16:38;14.80;1.00
14614;DHT22;7393;51.446;6.800;2023-05-15T06:19:04;14.80;99.90
14614;DHT22;7393;51.446;6.800;2023-05-15T06:21:32;14.90;99.90
14614;DHT22;7393;51.446;6.800;2023-05-15T06:23:59;14.90;99.90
14614;DHT22;7393;51.446;6.800;2023-05-15T06:26:26;14.90;99.90
14614;DHT22;7393;51.446;6.800;2023-05-15T06:28:52;15.00;99.90
14614;DHT22;7393;51.446;6.800;2023-05-15T06:31:21;15.10;56.80
14614;DHT22;7393;51.446;6.800;2023-05-15T06:33:48;15.20;1.00
14614;DHT22;7393;51.446;6.800;2023-05-15T06:36:15;15.20;1.00
14614;DHT22;7393;51.446;6.800;2023-05-15T06:38:42;15.30;99.90
14614;DHT22;7393;51.446;6.800;2023-05-15T06:41:08;15.30;99.90
14614;DHT22;7393;51.446;6.800;2023-05-15T06:43:35;15.40;1.00
14614;DHT22;7393;51.446;6.800;2023-05-15T06:46:02;15.40;1.00
14614;DHT22;7393;51.446;6.800;2023-05-15T06:48:30;15.40;1.00
14614;DHT22;7393;51.446;6.800;2023-05-15T06:50:57;15.40;99.90
14614;DHT22;7393;51.446;6.800;2023-05-15T06:53:24;15.40;99.90
14614;DHT22;7393;51.446;6.800;2023-05-15T06:55:51;15.40;99.90
14614;DHT22;7393;51.446;6.800;2023-05-15T06:58:17;15.50;99.90
14614;DHT22;7393;51.446;6.800;2023-05-15T07:00:44;15.50;76.50
14614;DHT22;7393;51.446;6.800;2023-05-15T07:03:11;15.50;17.10
14614;DHT22;7393;51.446;6.800;2023-05-15T07:05:40;15.50;11.70
14614;DHT22;7393;51.446;6.800;2023-05-15T07:08:06;15.60;9.70
14614;DHT22;7393;51.446;6.800;2023-05-15T07:10:33;15.60;20.00
14614;DHT22;7393;51.446;6.800;2023-05-15T07:13:00;15.60;1.00
14614;DHT22;7393;51.446;6.800;2023-05-15T07:15:27;15.60;1.00
14614;DHT22;7393;51.446;6.800;2023-05-15T07:17:54;15.60;1.00
14614;DHT22;7393;51.446;6.800;2023-05-15T07:20:21;15.60;1.00
14614;DHT22;7393;51.446;6.800;2023-05-15T07:22:49;15.60;1.00
14614;DHT22;7393;51.446;6.800;2023-05-15T07:25:16;15.60;19.50
14614;DHT22;7393;51.446;6.800;2023-05-15T07:27:42;15.70;10.80
14614;DHT22;7393;51.446;6.800;2023-05-15T07:30:10;15.70;9.10
14614;DHT22;7393;51.446;6.800;2023-05-15T07:32:37;15.70;1.00
14614;DHT22;7393;51.446;6.800;2023-05-15T07:35:04;15.70;1.00
14614;DHT22;7393;51.446;6.800;2023-05-15T07:37:31;15.70;1.00
14614;DHT22;7393;51.446;6.800;2023-05-15T07:39:59;15.80;1.00
14614;DHT22;7393;51.446;6.800;2023-05-15T07:42:26;15.80;1.00
14614;DHT22;7393;51.446;6.800;2023-05-15T07:44:53;15.90;1.00
14614;DHT22;7393;51.446;6.800;2023-05-15T07:47:19;15.90;1.00
14614;DHT22;7393;51.446;6.800;2023-05-15T07:49:46;15.90;1.00
14614;DHT22;7393;51.446;6.800;2023-05-15T07:52:13;16.00;1.00
14614;DHT22;7393;51.446;6.800;2023-05-15T07:54:40;16.00;1.00
14614;DHT22;7393;51.446;6.800;2023-05-15T07:57:08;16.10;1.00
14614;DHT22;7393;51.446;6.800;2023-05-15T07:59:35;16.30;1.00
14614;DHT22;7393;51.446;6.800;2023-05-15T08:02:02;16.50;1.00
14614;DHT22;7393;51.446;6.800;2023-05-15T08:04:29;16.70;1.00
14614;DHT22;7393;51.446;6.800;2023-05-15T08:06:56;16.80;99.90
14614;DHT22;7393;51.446;6.800;2023-05-15T08:09:22;16.90;99.90
14614;DHT22;7393;51.446;6.800;2023-05-15T08:11:49;17.00;99.90
14614;DHT22;7393;51.446;6.800;2023-05-15T08:14:17;17.10;99.90
14614;DHT22;7393;51.446;6.800;2023-05-15T08:16:44;17.20;99.90
14614;DHT22;7393;51.446;6.800;2023-05-15T08:19:11;17.30;99.90
14614;DHT22;7393;51.446;6.800;2023-05-15T08:21:38;17.50;99.90
14614;DHT22;7393;51.446;6.800;2023-05-15T08:24:05;17.70;99.90
14614;DHT22;7393;51.446;6.800;2023-05-15T08:26:32;17.70;99.90
14614;DHT22;7393;51.446;6.800;2023-05-15T08:28:59;17.90;99.90
14614;DHT22;7393;51.446;6.800;2023-05-15T08:31:27;18.00;99.90
14614;DHT22;7393;51.446;6.800;2023-05-15T08:33:54;18.10;99.90
14614;DHT22;7393;51.446;6.800;2023-05-15T08:36:21;18.20;99.90
14614;DHT22;7393;51.446;6.800;2023-05-15T08:38:47;18.30;99.90
14614;DHT22;7393;51.446;6.800;2023-05-15T08:41:22;18.40;99.90
14614;DHT22;7393;51.446;6.800;2023-05-15T08:43:52;18.50;99.90
14614;DHT22;7393;51.446;6.800;2023-05-15T08:46:21;18.60;99.90
14614;DHT22;7393;51.446;6.800;2023-05-15T08:48:51;18.70;99.90
14614;DHT22;7393;51.446;6.800;2023-05-15T08:51:19;18.80;99.90
14614;DHT22;7393;51.446;6.800;2023-05-15T08:53:46;18.90;99.90
14614;DHT22;7393;51.446;6.800;2023-05-15T08:56:13;19.00;99.90
14614;DHT22;7393;51.446;6.800;2023-05-15T08:58:40;19.10;99.90
14614;DHT22;7393;51.446;6.800;2023-05-15T09:01:07;19.10;86.20
14614;DHT22;7393;51.446;6.800;2023-05-15T09:03:34;19.20;59.20
14614;DHT22;7393;51.446;6.800;2023-05-15T09:06:04;19.30;14.10
14614;DHT22;7393;51.446;6.800;2023-05-15T09:08:32;19.30;10.30
14614;DHT22;7393;51.446;6.800;2023-05-15T09:11:01;19.50;1.30
14614;DHT22;7393;51.446;6.800;2023-05-15T09:13:28;19.60;1.00
14614;DHT22;7393;51.446;6.800;2023-05-15T09:15:55;19.70;1.00
14614;DHT22;7393;51.446;6.800;2023-05-15T09:18:22;19.70;1.00
14614;DHT22;7393;51.446;6.800;2023-05-15T09:20:49;19.80;1.00
14614;DHT22;7393;51.446;6.800;2023-05-15T09:23:25;19.80;1.00
14614;DHT22;7393;51.446;6.800;2023-05-15T09:25:52;20.00;1.00
14614;DHT22;7393;51.446;6.800;2023-05-15T09:28:26;20.10;1.00
14614;DHT22;7393;51.446;6.800;2023-05-15T09:30:58;20.20;1.00
14614;DHT22;7393;51.446;6.800;2023-05-15T09:33:31;20.20;1.00
14614;DHT22;7393;51.446;6.800;2023-05-15T09:35:58;20.30;1.00
14614;DHT22;7393;51.446;6.800;2023-05-15T09:38:26;20.40;1.00
14614;DHT22;7393;51.446;6.800;2023-05-15T09:41:00;20.50;1.00
14614;DHT22;7393;51.446;6.800;2023-05-15T09:43:28;20.60;1.00
14614;DHT22;7393;51.446;6.800;2023-05-15T09:45:55;20.70;1.00
14614;DHT22;7393;51.446;6.800;2023-05-15T09:48:22;20.80;1.00
14614;DHT22;7393;51.446;6.800;2023-05-15T09:50:49;20.90;1.00
14614;DHT22;7393;51.446;6.800;2023-05-15T09:53:16;21.00;1.00
14614;DHT22;7393;51.446;6.800;2023-05-15T09:55:44;21.10;1.00
14614;DHT22;7393;51.446;6.800;2023-05-15T09:58:14;21.20;1.00
14614;DHT22;7393;51.446;6.800;2023-05-15T10:00:42;21.30;1.00
14614;DHT22;7393;51.446;6.800;2023-05-15T10:03:10;21.30;1.00
14614;DHT22;7393;51.446;6.800;2023-05-15T10:05:37;21.40;1.00
14614;DHT22;7393;51.446;6.800;2023-05-15T10:08:05;21.50;1.00
14614;DHT22;7393;51.446;6.800;2023-05-15T10:10:31;21.70;1.00
14614;DHT22;7393;51.446;6.800;2023-05-15T10:13:00;21.90;1.00
14614;DHT22;7393;51.446;6.800;2023-05-15T10:15:29;21.90;1.00
14614;DHT22;7393;51.446;6.800;2023-05-15T10:17:56;21.90;1.00
14614;DHT22;7393;51.446;6.800;2023-05-15T10:20:24;22.00;1.00
14614;DHT22;7393;51.446;6.800;2023-05-15T10:22:52;22.10;1.00
14614;DHT22;7393;51.446;6.800;2023-05-15T10:25:26;22.20;1.00
14614;DHT22;7393;51.446;6.800;2023-05-15T10:27:58;22.30;1.00
14614;DHT22;7393;51.446;6.800;2023-05-15T10:30:27;22.40;1.00
14614;DHT22;7393;51.446;6.800;2023-05-15T10:32:54;22.40;1.00
14614;DHT22;7393;51.446;6.800;2023-05-15T10:35:22;22.50;1.00
14614;DHT22;7393;51.446;6.800;2023-05-15T10:37:49;22.50;1.00
14614;DHT22;7393;51.446;6.800;2023-05-15T10:40:16;22.60;1.00
14614;DHT22;7393;51.446;6.800;2023-05-15T10:42:45;22.70;1.00
14614;DHT22;7393;51.446;6.800;2023-05-15T10:45:12;22.70;1.00
14614;DHT22;7393;51.446;6.800;2023-05-15T10:47:42;22.80;1.00
14614;DHT22;7393;51.446;6.800;2023-05-15T10:50:11;23.00;1.00
14614;DHT22;7393;51.446;6.800;2023-05-15T10:52:39;23.10;1.00
14614;DHT22;7393;51.446;6.800;2023-05-15T10:55:07;23.20;1.00
14614;DHT22;7393;51.446;6.800;2023-05-15T10:57:35;23.30;1.00
14614;DHT22;7393;51.446;6.800;2023-05-15T11:00:02;23.30;1.00
14614;DHT22;7393;51.446;6.800;2023-05-15T11:02:37;23.30;1.00
14614;DHT22;7393;51.446;6.800;2023-05-15T11:05:06;23.40;1.00
14614;DHT22;7393;51.446;6.800;2023-05-15T11:07:33;23.60;1.00
14614;DHT22;7393;51.446;6.800;2023-05-15T11:10:35;23.60;1.00
14614;DHT22;7393;51.446;6.800;2023-05-15T11:13:02;23.60;1.00
14614;DHT22;7393;51.446;6.800;2023-05-15T11:15:40;23.70;1.00
14614;DHT22;7393;51.446;6.800;2023-05-15T11:18:08;23.70;1.00
14614;DHT22;7393;51.446;6.800;2023-05-15T11:20:39;23.70;1.00
14614;DHT22;7393;51.446;6.800;2023-05-15T11:23:06;23.70;1.00
14614;DHT22;7393;51.446;6.800;2023-05-15T11:25:34;23.60;1.00
14614;DHT22;7393;51.446;6.800;2023-05-15T11:28:02;23.80;1.00
14614;DHT22;7393;51.446;6.800;2023-05-15T11:30:37;23.80;1.00
14614;DHT22;7393;51.446;6.800;2023-05-15T11:33:05;23.90;1.00
14614;DHT22;7393;51.446;6.800;2023-05-15T11:35:38;24.00;1.00
14614;DHT22;7393;51.446;6.800;2023-05-15T11:38:11;24.20;1.00
14614;DHT22;7393;51.446;6.800;2023-05-15T11:40:45;24.40;1.00
14614;DHT22;7393;51.446;6.800;2023-05-15T11:43:17;24.60;1.00
14614;DHT22;7393;51.446;6.800;2023-05-15T11:45:46;24.80;1.00
14614;DHT22;7393;51.446;6.800;2023-05-15T11:48:15;25.00;1.00
14614;DHT22;7393;51.446;6.800;2023-05-15T11:50:44;25.20;1.00
14614;DHT22;7393;51.446;6.800;2023-05-15T11:53:11;25.20;1.00
14614;DHT22;7393;51.446;6.800;2023-05-15T11:55:41;25.30;1.00
14614;DHT22;7393;51.446;6.800;2023-05-15T11:58:13;25.20;1.00
14614;DHT22;7393;51.446;6.800;2023-05-15T12:00:40;25.20;1.00
14614;DHT22;7393;51.446;6.800;2023-05-15T12:03:14;25.20;1.00
14614;DHT22;7393;51.446;6.800;2023-05-15T12:05:43;25.40;1.00
14614;DHT22;7393;51.446;6.800;2023-05-15T12:08:10;25.50;1.00
14614;DHT22;7393;51.446;6.800;2023-05-15T12:10:40;25.50;1.00
14614;DHT22;7393;51.446;6.800;2023-05-15T12:13:08;25.60;1.00
14614;DHT22;7393;51.446;6.800;2023-05-15T12:15:36;25.80;1.00
14614;DHT22;7393;51.446;6.800;2023-05-15T12:18:04;25.90;1.00
14614;DHT22;7393;51.446;6.800;2023-05-15T12:20:32;26.00;1.00
14614;DHT22;7393;51.446;6.800;2023-05-15T12:23:01;26.10;1.00
14614;DHT22;7393;51.446;6.800;2023-05-15T12:25:29;26.20;1.00
14614;DHT22;7393;51.446;6.800;2023-05-15T12:27:57;26.30;1.00
14614;DHT22;7393;51.446;6.800;2023-05-15T12:30:25;26.40;1.00
14614;DHT22;7393;51.446;6.800;2023-05-15T12:32:52;26.40;1.00
14614;DHT22;7393;51.446;6.800;2023-05-15T12:35:20;26.40;1.00
14614;DHT22;7393;51.446;6.800;2023-05-15T12:37:47;26.50;1.00
14614;DHT22;7393;51.446;6.800;2023-05-15T12:40:19;26.40;1.00
14614;DHT22;7393;51.446;6.800;2023-05-15T12:42:51;26.40;1.00
14614;DHT22;7393;51.446;6.800;2023-05-15T12:45:19;26.30;1.00
14614;DHT22;7393;51.446;6.800;2023-05-15T12:47:47;26.30;1.00
14614;DHT22;7393;51.446;6.800;2023-05-15T12:50:16;26.30;1.00
14614;DHT22;7393;51.446;6.800;2023-05-15T12:52:49;26.40;1.00
14614;DHT22;7393;51.446;6.800;2023-05-15T12:55:17;26.50;1.00
14614;DHT22;7393;51.446;6.800;2023-05-15T12:57:47;26.50;1.00
14614;DHT22;7393;51.446;6.800;2023-05-15T13:00:15;26.60;1.00
14614;DHT22;7393;51.446;6.800;2023-05-15T13:02:42;26.70;1.00
14614;DHT22;7393;51.446;6.800;2023-05-15T13:05:10;26.70;1.00
14614;DHT22;7393;51.446;6.800;2023-05-15T13:07:37;26.70;1.00
14614;DHT22;7393;51.446;6.800;2023-05-15T13:10:07;26.70;1.00
14614;DHT22;7393;51.446;6.800;2023-05-15T13:12:36;26.80;1.00
14614;DHT22;7393;51.446;6.800;2023-05-15T13:15:04;26.90;1.00
14614;DHT22;7393;51.446;6.800;2023-05-15T13:17:31;27.00;1.00
14614;DHT22;7393;51.446;6.800;2023-05-15T13:19:59;27.00;1.00
14614;DHT22;7393;51.446;6.800;2023-05-15T13:22:26;26.90;1.00
14614;DHT22;7393;51.446;6.800;2023-05-15T13:24:53;26.90;1.00
14614;DHT22;7393;51.446;6.800;2023-05-15T13:27:19;26.90;1.00
14614;DHT22;7393;51.446;6.800;2023-05-15T13:29:47;26.70;1.00
14614;DHT22;7393;51.446;6.800;2023-05-15T13:32:14;26.40;1.00
14614;DHT22;7393;51.446;6.800;2023-05-15T13:34:41;26.20;1.00
14614;DHT22;7393;51.446;6.800;2023-05-15T13:37:08;25.90;1.00
14614;DHT22;7393;51.446;6.800;2023-05-15T13:39:35;25.70;1.00
14614;DHT22;7393;51.446;6.800;2023-05-15T13:42:02;25.60;1.00
14614;DHT22;7393;51.446;6.800;2023-05-15T13:44:29;25.50;1.00
14614;DHT22;7393;51.446;6.800;2023-05-15T13:46:57;25.40;1.00
14614;DHT22;7393;51.446;6.800;2023-05-15T13:49:28;25.20;1.00
14614;DHT22;7393;51.446;6.800;2023-05-15T13:51:55;25.10;1.00
14614;DHT22;7393;51.446;6.800;2023-05-15T13:54:22;25.10;1.00
14614;DHT22;7393;51.446;6.800;2023-05-15T13:56:48;25.00;1.00
14614;DHT22;7393;51.446;6.800;2023-05-15T13:59:15;24.90;1.00
14614;DHT22;7393;51.446;6.800;2023-05-15T14:01:42;24.90;1.00
14614;DHT22;7393;51.446;6.800;2023-05-15T14:04:10;24.90;1.00
14614;DHT22;7393;51.446;6.800;2023-05-15T14:06:37;24.90;1.00
14614;DHT22;7393;51.446;6.800;2023-05-15T14:09:03;24.80;1.00
14614;DHT22;7393;51.446;6.800;2023-05-15T14:11:31;24.80;1.00
14614;DHT22;7393;51.446;6.800;2023-05-15T14:13:58;24.90;1.00
14614;DHT22;7393;51.446;6.800;2023-05-15T14:16:25;25.00;1.00
14614;DHT22;7393;51.446;6.800;2023-05-15T14:18:52;25.00;1.00
14614;DHT22;7393;51.446;6.800;2023-05-15T14:21:20;25.00;1.00
14614;DHT22;7393;51.446;6.800;2023-05-15T14:23:46;24.90;1.00
14614;DHT22;7393;51.446;6.800;2023-05-15T14:26:13;24.80;1.00
14614;DHT22;7393;51.446;6.800;2023-05-15T14:28:40;24.70;1.00
14614;DHT22;7393;51.446;6.800;2023-05-15T14:31:07;24.70;1.00
14614;DHT22;7393;51.446;6.800;2023-05-15T14:33:34;24.70;1.00
14614;DHT22;7393;51.446;6.800;2023-05-15T14:36:01;24.60;1.00
14614;DHT22;7393;51.446;6.800;2023-05-15T14:38:30;24.50;1.00
14614;DHT22;7393;51.446;6.800;2023-05-15T14:40:57;24.40;1.00
14614;DHT22;7393;51.446;6.800;2023-05-15T14:43:24;24.30;1.00
14614;DHT22;7393;51.446;6.800;2023-05-15T14:45:50;24.30;1.00
14614;DHT22;7393;51.446;6.800;2023-05-15T14:48:18;24.20;1.00
14614;DHT22;7393;51.446;6.800;2023-05-15T14:50:45;24.10;1.00
14614;DHT22;7393;51.446;6.800;2023-05-15T14:53:11;24.10;1.00
14614;DHT22;7393;51.446;6.800;2023-05-15T14:55:39;23.90;1.00
14614;DHT22;7393;51.446;6.800;2023-05-15T14:58:06;23.80;1.00
14614;DHT22;7393;51.446;6.800;2023-05-15T15:00:35;23.80;1.00
14614;DHT22;7393;51.446;6.800;2023-05-15T15:03:02;23.70;1.00
14614;DHT22;7393;51.446;6.800;2023-05-15T15:05:29;23.70;1.00
14614;DHT22;7393;51.446;6.800;2023-05-15T15:07:58;23.60;1.00
14614;DHT22;7393;51.446;6.800;2023-05-15T15:10:26;23.50;1.00
14614;DHT22;7393;51.446;6.800;2023-05-15T15:12:55;23.40;1.00
14614;DHT22;7393;51.446;6.800;2023-05-15T15:15:21;23.30;1.00
14614;DHT22;7393;51.446;6.800;2023-05-15T15:17:48;23.30;1.00
14614;DHT22;7393;51.446;6.800;2023-05-15T15:20:17;23.30;1.00
14614;DHT22;7393;51.446;6.800;2023-05-15T15:22:43;23.20;1.00
14614;DHT22;7393;51.446;6.800;2023-05-15T15:25:10;23.10;1.00
14614;DHT22;7393;51.446;6.800;2023-05-15T15:27:37;23.00;1.00
14614;DHT22;7393;51.446;6.800;2023-05-15T15:30:07;22.80;1.00
14614;DHT22;7393;51.446;6.800;2023-05-15T15:32:36;22.60;1.00
14614;DHT22;7393;51.446;6.800;2023-05-15T15:35:03;22.30;1.00
14614;DHT22;7393;51.446;6.800;2023-05-15T15:37:31;22.20;1.00
14614;DHT22;7393;51.446;6.800;2023-05-15T15:39:59;22.00;1.00
14614;DHT22;7393;51.446;6.800;2023-05-15T15:42:26;22.00;1.00
14614;DHT22;7393;51.446;6.800;2023-05-15T15:44:53;21.90;1.00
14614;DHT22;7393;51.446;6.800;2023-05-15T15:47:22;21.80;1.00
14614;DHT22;7393;51.446;6.800;2023-05-15T15:49:49;21.60;1.00
14614;DHT22;7393;51.446;6.800;2023-05-15T15:52:16;21.60;1.00
14614;DHT22;7393;51.446;6.800;2023-05-15T15:54:43;21.50;1.00
14614;DHT22;7393;51.446;6.800;2023-05-15T15:57:11;21.50;1.00
14614;DHT22;7393;51.446;6.800;2023-05-15T15:59:38;21.50;1.00
14614;DHT22;7393;51.446;6.800;2023-05-15T16:02:05;21.40;1.00